createdAt,value
2022-09-15T00:00:32.630Z,3.63
2022-09-15T00:02:59.331Z,4.40
2022-09-15T00:05:25.978Z,3.95
2022-09-15T00:07:52.589Z,3.90
2022-09-15T00:10:19.376Z,3.10
2022-09-15T00:12:46.026Z,2.28
2022-09-15T00:15:14.904Z,2.28
2022-09-15T00:17:43.234Z,2.78
2022-09-15T00:20:10.863Z,3.15
2022-09-15T00:22:38.148Z,3.22
2022-09-15T00:25:05.564Z,2.53
2022-09-15T00:27:33.931Z,2.80
2022-09-15T00:30:01.229Z,3.47
2022-09-15T00:32:29.743Z,2.53
2022-09-15T00:34:56.321Z,1.80
2022-09-15T00:37:23.327Z,2.05
2022-09-15T00:39:49.993Z,1.33
2022-09-15T00:42:18.786Z,2.25
2022-09-15T00:44:55.085Z,2.22
2022-09-15T00:47:27.281Z,2.20
2022-09-15T00:50:01.177Z,1.75
2022-09-15T00:52:32.215Z,2.25
2022-09-15T00:55:17.344Z,1.63
2022-09-15T00:57:58.723Z,1.30
2022-09-15T01:00:27.977Z,1.65
2022-09-15T01:02:55.966Z,1.40
2022-09-15T01:05:30.693Z,1.30
2022-09-15T01:08:04.574Z,1.27
2022-09-15T01:10:36.379Z,1.27
2022-09-15T01:13:06.758Z,1.30
2022-09-15T01:15:47.771Z,1.60
2022-09-15T01:18:24.769Z,1.67
2022-09-15T01:20:57.539Z,1.77
2022-09-15T01:23:52.018Z,1.25
2022-09-15T01:26:43.686Z,1.40
2022-09-15T01:29:24.422Z,1.58
2022-09-15T01:32:12.971Z,1.70
2022-09-15T01:34:51.947Z,1.52
2022-09-15T01:37:24.815Z,1.77
2022-09-15T01:39:54.152Z,1.88
2022-09-15T01:42:23.231Z,1.55
2022-09-15T01:44:55.833Z,1.65
2022-09-15T01:50:10.175Z,1.63
2022-09-15T01:52:40.130Z,1.70
2022-09-15T01:55:16.050Z,1.55
2022-09-15T01:57:44.979Z,1.50
2022-09-15T02:00:12.317Z,1.60
2022-09-15T02:02:48.692Z,1.33
2022-09-15T02:05:39.627Z,1.50
2022-09-15T02:08:25.560Z,1.20
2022-09-15T02:11:12.877Z,1.60
2022-09-15T02:13:48.695Z,1.40
2022-09-15T02:16:22.060Z,1.52
2022-09-15T02:19:09.732Z,1.17
2022-09-15T02:21:47.910Z,1.23
2022-09-15T02:24:19.275Z,1.50
2022-09-15T02:26:49.514Z,1.50
2022-09-15T02:29:19.790Z,1.42
2022-09-15T02:31:48.841Z,1.20
2022-09-15T02:34:24.124Z,1.45
2022-09-15T02:36:53.662Z,1.50
2022-09-15T02:39:23.474Z,1.42
2022-09-15T02:41:50.154Z,1.67
2022-09-15T02:44:17.040Z,1.73
2022-09-15T02:46:44.115Z,1.52
2022-09-15T02:49:14.198Z,1.17
2022-09-15T02:51:45.100Z,1.30
2022-09-15T02:54:19.344Z,1.65
2022-09-15T02:56:49.994Z,1.55
2022-09-15T02:59:18.177Z,1.25
2022-09-15T03:01:45.019Z,1.48
2022-09-15T03:04:11.752Z,1.45
2022-09-15T03:06:38.519Z,1.40
2022-09-15T03:09:07.884Z,1.45
2022-09-15T03:11:35.663Z,1.38
2022-09-15T03:14:05.588Z,1.40
2022-09-15T03:16:34.571Z,1.30
2022-09-15T03:19:01.365Z,1.50
2022-09-15T03:21:29.643Z,1.33
2022-09-15T03:23:57.683Z,1.27
2022-09-15T03:26:24.450Z,1.30
2022-09-15T03:28:51.219Z,1.30
2022-09-15T03:31:17.898Z,1.40
2022-09-15T03:33:44.555Z,1.40
2022-09-15T03:36:11.227Z,1.50
2022-09-15T03:38:37.841Z,1.52
2022-09-15T03:41:11.052Z,1.80
2022-09-15T03:43:39.120Z,1.60
2022-09-15T03:46:09.001Z,1.73
2022-09-15T03:48:36.683Z,1.63
2022-09-15T03:51:04.688Z,2.25
2022-09-15T03:53:35.855Z,2.38
2022-09-15T03:56:21.629Z,2.33
2022-09-15T03:58:52.007Z,2.15
2022-09-15T04:01:20.010Z,2.30
2022-09-15T04:03:50.820Z,2.50
2022-09-15T04:06:19.667Z,2.88
2022-09-15T04:08:46.396Z,2.40
2022-09-15T04:11:13.896Z,2.00
2022-09-15T04:13:42.017Z,2.00
2022-09-15T04:16:11.816Z,2.05
2022-09-15T04:18:38.543Z,1.83
2022-09-15T04:21:07.767Z,1.80
2022-09-15T04:23:35.150Z,1.92
2022-09-15T04:26:04.802Z,1.63
2022-09-15T04:28:36.985Z,1.85
2022-09-15T04:31:06.599Z,1.70
2022-09-15T04:33:33.963Z,1.90
2022-09-15T04:36:07.115Z,1.50
2022-09-15T04:38:33.802Z,1.98
2022-09-15T04:41:00.475Z,1.80
2022-09-15T04:43:27.180Z,1.88
2022-09-15T04:45:54.850Z,1.60
2022-09-15T04:48:22.848Z,1.95
2022-09-15T04:50:49.830Z,1.90
2022-09-15T04:53:16.843Z,2.15
2022-09-15T04:55:43.567Z,1.40
2022-09-15T04:58:10.416Z,1.83
2022-09-15T05:00:45.742Z,1.80
2022-09-15T05:03:14.086Z,1.80
2022-09-15T05:05:41.355Z,1.70
2022-09-15T05:08:08.439Z,1.67
2022-09-15T05:10:35.254Z,1.63
2022-09-15T05:13:02.059Z,1.73
2022-09-15T05:15:28.630Z,1.70
2022-09-15T05:17:55.222Z,1.98
2022-09-15T05:20:22.493Z,1.50
2022-09-15T05:22:49.176Z,2.22
2022-09-15T05:25:15.854Z,1.83
2022-09-15T05:27:42.666Z,1.95
2022-09-15T05:30:35.534Z,1.80
2022-09-15T05:32:56.722Z,2.20
2022-09-15T05:35:23.696Z,2.40
2022-09-15T05:37:50.384Z,2.72
2022-09-15T05:40:17.262Z,2.63
2022-09-15T05:42:43.910Z,3.40
2022-09-15T05:45:11.144Z,3.25
2022-09-15T05:47:37.788Z,3.20
2022-09-15T05:50:04.627Z,3.17
2022-09-15T05:52:31.245Z,2.67
2022-09-15T05:54:59.347Z,3.30
2022-09-15T05:57:26.114Z,3.20
2022-09-15T05:59:52.753Z,3.08
2022-09-15T06:02:19.455Z,2.90
2022-09-15T06:04:46.082Z,3.35
2022-09-15T06:07:13.132Z,3.60
2022-09-15T06:09:40.003Z,3.40
2022-09-15T06:12:06.805Z,3.25
2022-09-15T06:14:33.546Z,3.92
2022-09-15T06:17:00.147Z,5.00
2022-09-15T06:19:26.753Z,5.80
2022-09-15T06:21:53.949Z,4.00
2022-09-15T06:24:20.564Z,4.07
2022-09-15T06:26:47.296Z,3.38
2022-09-15T06:29:14.016Z,3.70
2022-09-15T06:31:40.651Z,3.78
2022-09-15T06:34:08.647Z,3.85
2022-09-15T06:36:36.949Z,3.97
2022-09-15T06:39:03.676Z,4.40
2022-09-15T06:41:42.616Z,4.15
2022-09-15T06:44:21.336Z,4.18
2022-09-15T06:46:48.670Z,5.07
2022-09-15T06:49:15.723Z,4.25
2022-09-15T06:51:42.364Z,4.20
2022-09-15T06:54:08.997Z,4.32
2022-09-15T06:56:38.060Z,4.00
2022-09-15T06:59:05.236Z,4.43
2022-09-15T07:01:32.699Z,3.63
2022-09-15T07:04:01.122Z,3.92
2022-09-15T07:06:29.999Z,4.30
2022-09-15T07:08:58.474Z,3.72
2022-09-15T07:11:26.006Z,3.10
2022-09-15T07:13:52.918Z,2.95
2022-09-15T07:16:20.991Z,3.13
2022-09-15T07:18:53.072Z,3.42
2022-09-15T07:21:21.513Z,3.17
2022-09-15T07:23:48.958Z,3.13
2022-09-15T07:26:20.039Z,2.45
2022-09-15T07:28:56.885Z,2.05
2022-09-15T07:31:26.626Z,2.08
2022-09-15T07:33:53.499Z,1.80
2022-09-15T07:36:20.883Z,2.10
2022-09-15T07:38:49.746Z,1.60
2022-09-15T07:41:21.685Z,1.70
2022-09-15T07:43:50.040Z,1.50
2022-09-15T07:46:18.666Z,2.20
2022-09-15T07:48:50.634Z,2.22
2022-09-15T07:51:18.099Z,2.10
2022-09-15T07:53:47.433Z,1.90
2022-09-15T07:56:15.461Z,2.35
2022-09-15T07:58:42.137Z,2.20
2022-09-15T08:01:14.776Z,1.95
2022-09-15T08:03:50.828Z,2.20
2022-09-15T08:06:22.861Z,2.50
2022-09-15T08:08:56.272Z,2.28
2022-09-15T08:11:23.276Z,2.42
2022-09-15T08:13:52.551Z,1.85
2022-09-15T08:16:24.484Z,2.22
2022-09-15T08:18:55.788Z,2.10
2022-09-15T08:21:23.606Z,2.42
2022-09-15T08:23:52.620Z,2.42
2022-09-15T08:26:19.780Z,1.98
2022-09-15T08:28:46.612Z,3.25
2022-09-15T08:31:14.502Z,1.92
2022-09-15T08:33:45.448Z,2.53
2022-09-15T08:36:12.791Z,2.50
2022-09-15T08:38:40.762Z,2.42
2022-09-15T08:41:25.722Z,2.08
2022-09-15T08:44:22.597Z,2.70
2022-09-15T08:46:54.278Z,2.33
2022-09-15T08:49:51.657Z,2.25
2022-09-15T08:52:26.677Z,2.03
2022-09-15T08:54:57.226Z,2.20
2022-09-15T08:57:25.894Z,2.20
2022-09-15T08:59:55.077Z,2.30
2022-09-15T09:02:46.741Z,1.90
2022-09-15T09:05:21.482Z,2.20
2022-09-15T09:08:32.418Z,2.10
2022-09-15T09:11:01.824Z,1.65
2022-09-15T09:13:37.774Z,1.30
2022-09-15T09:16:23.152Z,1.55
2022-09-15T09:19:21.010Z,1.42
2022-09-15T09:21:55.670Z,1.52
2022-09-15T09:24:39.256Z,1.40
2022-09-15T09:27:13.023Z,1.42
2022-09-15T09:29:44.885Z,1.50
2022-09-15T09:32:26.510Z,1.90
2022-09-15T09:35:24.830Z,1.50
2022-09-15T09:37:52.861Z,1.48
2022-09-15T09:40:20.025Z,1.77
2022-09-15T09:42:47.281Z,1.45
2022-09-15T09:45:15.794Z,1.30
2022-09-15T09:47:42.966Z,1.70
2022-09-15T09:50:32.022Z,1.20
2022-09-15T09:52:59.408Z,1.60
2022-09-15T09:55:27.326Z,2.05
2022-09-15T09:57:54.405Z,1.30
2022-09-15T10:00:35.824Z,1.45
2022-09-15T10:03:17.918Z,1.23
2022-09-15T10:05:46.047Z,1.50
2022-09-15T10:08:18.412Z,1.77
2022-09-15T10:13:22.693Z,2.00
2022-09-15T10:15:59.581Z,1.80
2022-09-15T10:18:37.098Z,2.00
2022-09-15T10:21:07.426Z,1.85
2022-09-15T10:23:34.443Z,1.60
2022-09-15T10:26:16.327Z,2.03
2022-09-15T10:28:44.043Z,1.45
2022-09-15T10:31:16.011Z,1.90
2022-09-15T10:33:45.078Z,1.65
2022-09-15T10:36:20.502Z,1.45
2022-09-15T10:38:49.798Z,1.73
2022-09-15T10:41:22.654Z,1.38
2022-09-15T10:44:10.900Z,1.65
2022-09-15T10:46:55.492Z,1.42
2022-09-15T10:49:43.656Z,1.10
2022-09-15T10:52:29.020Z,0.93
2022-09-15T10:55:42.558Z,0.55
2022-09-15T10:58:16.177Z,0.60
2022-09-15T11:00:59.776Z,0.43
2022-09-15T11:03:47.672Z,1.00
2022-09-15T11:06:29.993Z,1.77
2022-09-15T11:08:59.362Z,1.20
2022-09-15T11:11:48.540Z,3.20
2022-09-15T11:14:34.301Z,1.15
2022-09-15T11:17:19.542Z,0.70
2022-09-15T11:20:04.105Z,0.73
2022-09-15T11:22:43.320Z,1.10
2022-09-15T11:25:11.772Z,0.95
2022-09-15T11:27:49.318Z,1.13
2022-09-15T11:30:20.101Z,0.65
2022-09-15T11:33:13.192Z,0.80
2022-09-15T11:35:46.396Z,1.15
2022-09-15T11:38:30.881Z,1.20
2022-09-15T11:41:19.050Z,1.30
2022-09-15T11:44:06.197Z,0.88
2022-09-15T11:47:10.077Z,0.95
2022-09-15T11:49:48.817Z,1.10
2022-09-15T11:52:37.872Z,0.93
2022-09-15T11:55:15.661Z,0.88
2022-09-15T11:57:52.190Z,1.15
2022-09-15T12:00:20.445Z,0.77
2022-09-15T12:03:22.259Z,0.80
2022-09-15T12:06:00.091Z,0.90
2022-09-15T12:09:06.189Z,0.73
2022-09-15T12:11:42.316Z,0.60
2022-09-15T12:14:16.489Z,0.60
2022-09-15T12:16:44.673Z,0.90
2022-09-15T12:19:23.173Z,0.63
2022-09-15T12:21:50.098Z,0.93
2022-09-15T12:24:19.565Z,0.68
2022-09-15T12:26:46.743Z,0.80
2022-09-15T12:29:22.128Z,0.98
2022-09-15T12:31:48.830Z,0.70
2022-09-15T12:34:36.603Z,0.75
2022-09-15T12:37:15.524Z,0.68
2022-09-15T12:39:43.470Z,0.70
2022-09-15T12:42:31.245Z,0.90
2022-09-15T12:45:00.179Z,0.77
2022-09-15T12:47:49.080Z,0.75
2022-09-15T12:50:15.718Z,0.90
2022-09-15T12:53:02.854Z,0.90
2022-09-15T12:55:36.325Z,1.30
2022-09-15T12:58:18.565Z,1.40
2022-09-15T13:01:13.822Z,1.63
2022-09-15T13:03:41.251Z,1.40
2022-09-15T13:06:10.643Z,1.38
2022-09-15T13:08:37.220Z,1.60
2022-09-15T13:11:15.054Z,1.63
2022-09-15T13:13:48.229Z,1.50
2022-09-15T13:16:33.614Z,1.83
2022-09-15T13:19:11.945Z,1.23
2022-09-15T13:21:43.919Z,2.00
2022-09-15T13:24:35.950Z,1.38
2022-09-15T13:27:04.921Z,1.38
2022-09-15T13:29:33.106Z,1.50
2022-09-15T13:32:31.735Z,1.48
2022-09-15T13:35:19.935Z,1.20
2022-09-15T13:38:22.093Z,1.50
2022-09-15T13:41:13.697Z,1.15
2022-09-15T13:43:58.515Z,1.20
2022-09-15T13:46:29.091Z,0.98
2022-09-15T13:49:17.974Z,1.05
2022-09-15T13:51:53.396Z,0.73
2022-09-15T13:54:20.299Z,0.85
2022-09-15T13:56:53.140Z,1.77
2022-09-15T13:59:25.446Z,1.60
2022-09-15T14:01:53.936Z,1.40
2022-09-15T14:04:28.349Z,1.38
2022-09-15T14:07:00.212Z,1.23
2022-09-15T14:09:33.334Z,1.30
2022-09-15T14:12:07.751Z,0.70
2022-09-15T14:14:58.190Z,0.60
2022-09-15T14:17:30.152Z,0.43
2022-09-15T14:19:59.118Z,0.70
2022-09-15T14:22:31.870Z,0.75
2022-09-15T14:25:07.037Z,0.68
2022-09-15T14:27:36.082Z,0.50
2022-09-15T14:30:07.337Z,0.55
2022-09-15T14:32:38.985Z,0.52
2022-09-15T14:35:09.208Z,0.40
2022-09-15T14:37:35.890Z,0.60
2022-09-15T14:40:19.274Z,0.80
2022-09-15T14:42:45.989Z,0.77
2022-09-15T14:48:07.382Z,0.60
2022-09-15T14:50:34.319Z,0.80
2022-09-15T14:53:03.991Z,0.70
2022-09-15T14:55:37.572Z,0.90
2022-09-15T14:58:12.864Z,0.80
2022-09-15T15:00:48.714Z,0.65
2022-09-15T15:03:42.449Z,0.60
2022-09-15T15:06:29.645Z,0.32
2022-09-15T15:09:30.270Z,0.57
2022-09-15T15:12:00.843Z,0.50
2022-09-15T15:14:28.385Z,0.80
2022-09-15T15:17:02.177Z,0.52
2022-09-15T15:19:40.290Z,0.70
2022-09-15T15:22:27.546Z,0.60
2022-09-15T15:24:54.918Z,0.47
2022-09-15T15:27:33.426Z,0.50
2022-09-15T15:30:26.624Z,0.90
2022-09-15T15:32:54.072Z,0.70
2022-09-15T15:35:21.247Z,0.90
2022-09-15T15:37:48.187Z,0.90
2022-09-15T15:40:18.478Z,1.00
2022-09-15T15:42:57.700Z,0.88
2022-09-15T15:45:30.593Z,0.75
2022-09-15T15:47:57.490Z,0.93
2022-09-15T15:50:27.530Z,0.90
2022-09-15T15:52:54.615Z,0.73
2022-09-15T15:55:23.578Z,0.60
2022-09-15T15:57:53.170Z,0.85
2022-09-15T16:00:51.189Z,0.60
2022-09-15T16:03:19.491Z,0.80
2022-09-15T16:05:51.632Z,0.68
2022-09-15T16:08:21.107Z,0.80
2022-09-15T16:10:49.454Z,0.60
2022-09-15T16:13:18.858Z,0.85
2022-09-15T16:15:46.363Z,1.45
2022-09-15T16:18:13.538Z,1.02
2022-09-15T16:20:41.291Z,0.80
2022-09-15T16:23:13.887Z,0.90
2022-09-15T16:28:19.501Z,1.08
2022-09-15T16:30:46.724Z,1.00
2022-09-15T16:33:15.527Z,1.10
2022-09-15T16:35:51.043Z,0.98
2022-09-15T16:38:19.761Z,0.80
2022-09-15T16:40:51.133Z,1.23
2022-09-15T16:43:20.878Z,1.10
2022-09-15T16:45:49.502Z,1.60
2022-09-15T16:48:16.383Z,1.15
2022-09-15T16:51:02.154Z,0.82
2022-09-15T16:53:31.029Z,0.73
2022-09-15T16:55:57.785Z,0.90
2022-09-15T16:58:24.447Z,1.00
2022-09-15T17:00:52.639Z,0.90
2022-09-15T17:03:21.688Z,1.10
2022-09-15T17:05:50.770Z,1.88
2022-09-15T17:08:22.770Z,2.03
2022-09-15T17:10:50.247Z,2.28
2022-09-15T17:13:19.937Z,1.80
2022-09-15T17:15:47.278Z,2.00
2022-09-15T17:18:15.417Z,1.88
2022-09-15T17:20:46.854Z,1.50
2022-09-15T17:23:35.314Z,1.75
2022-09-15T17:26:10.573Z,1.90
2022-09-15T17:28:37.615Z,1.73
2022-09-15T17:31:09.780Z,1.55
2022-09-15T17:33:36.526Z,1.80
2022-09-15T17:36:03.741Z,2.15
2022-09-15T17:38:31.531Z,1.65
2022-09-15T17:40:58.603Z,1.63
2022-09-15T17:43:27.835Z,1.45
2022-09-15T17:45:55.334Z,1.40
2022-09-15T17:48:22.847Z,1.20
2022-09-15T17:50:50.179Z,1.42
2022-09-15T17:53:26.672Z,1.33
2022-09-15T17:55:54.938Z,1.23
2022-09-15T17:58:24.006Z,1.33
2022-09-15T18:00:50.817Z,1.50
2022-09-15T18:03:26.883Z,1.10
2022-09-15T18:05:59.178Z,1.10
2022-09-15T18:08:26.773Z,1.50
2022-09-15T18:10:53.549Z,1.30
2022-09-15T18:13:22.670Z,1.48
2022-09-15T18:15:50.035Z,1.10
2022-09-15T18:18:24.778Z,1.00
2022-09-15T18:20:53.314Z,1.25
2022-09-15T18:23:22.870Z,1.30
2022-09-15T18:25:50.387Z,1.02
2022-09-15T18:28:17.899Z,1.45
2022-09-15T18:30:46.911Z,1.05
2022-09-15T18:33:14.833Z,1.20
2022-09-15T18:35:41.724Z,1.70
2022-09-15T18:38:08.983Z,1.52
2022-09-15T18:40:36.607Z,1.63
2022-09-15T18:43:03.502Z,1.33
2022-09-15T18:45:30.165Z,1.67
2022-09-15T18:47:57.015Z,1.60
2022-09-15T18:50:24.353Z,1.67
2022-09-15T18:52:51.023Z,1.30
2022-09-15T18:55:19.719Z,1.55
2022-09-15T18:57:47.364Z,2.30
2022-09-15T19:00:19.510Z,1.58
2022-09-15T19:02:46.549Z,1.70
2022-09-15T19:05:15.611Z,1.90
2022-09-15T19:07:44.853Z,1.60
2022-09-15T19:10:14.130Z,1.77
2022-09-15T19:12:41.019Z,4.40
2022-09-15T19:15:11.044Z,4.63
2022-09-15T19:17:39.416Z,4.50
2022-09-15T19:20:07.693Z,3.20
2022-09-15T19:22:35.339Z,3.25
2022-09-15T19:25:02.227Z,2.92
2022-09-15T19:27:28.970Z,2.90
2022-09-15T19:29:55.628Z,2.30
2022-09-15T19:32:22.900Z,2.40
2022-09-15T19:34:49.907Z,2.55
2022-09-15T19:37:19.061Z,2.30
2022-09-15T19:39:47.052Z,2.17
2022-09-15T19:44:42.437Z,2.20
2022-09-15T19:47:09.481Z,2.00
2022-09-15T19:49:36.155Z,2.53
2022-09-15T19:52:02.886Z,2.00
2022-09-15T19:54:30.557Z,2.00
2022-09-15T19:56:57.320Z,2.00
2022-09-15T19:59:28.730Z,2.58
2022-09-15T20:01:57.663Z,2.33
2022-09-15T20:04:24.366Z,1.75
2022-09-15T20:06:51.039Z,1.98
2022-09-15T20:09:17.735Z,1.77
2022-09-15T20:11:44.993Z,1.58
2022-09-15T20:14:11.792Z,1.70
2022-09-15T20:16:38.474Z,1.35
2022-09-15T20:19:05.703Z,1.40
2022-09-15T20:21:51.386Z,1.65
2022-09-15T20:24:19.587Z,1.58
2022-09-15T20:26:46.429Z,1.40
2022-09-15T20:29:13.285Z,1.83
2022-09-15T20:31:40.100Z,1.67
2022-09-15T20:34:07.231Z,1.63
2022-09-15T20:36:36.728Z,1.92
2022-09-15T20:39:05.838Z,1.88
2022-09-15T20:41:32.575Z,2.00
2022-09-15T20:43:59.699Z,2.10
2022-09-15T20:46:26.658Z,1.67
2022-09-15T20:48:53.458Z,1.80
2022-09-15T20:51:22.859Z,1.98
2022-09-15T20:53:51.562Z,1.90
2022-09-15T20:56:21.169Z,1.65
2022-09-15T20:58:47.845Z,1.80
2022-09-15T21:01:20.245Z,1.75
2022-09-15T21:03:47.870Z,1.60
2022-09-15T21:06:19.719Z,1.35
2022-09-15T21:08:47.642Z,1.70
2022-09-15T21:11:16.263Z,1.63
2022-09-15T21:13:43.593Z,1.92
2022-09-15T21:16:16.051Z,1.88
2022-09-15T21:18:44.729Z,2.05
2022-09-15T21:21:14.646Z,1.88
2022-09-15T21:23:46.885Z,1.90
2022-09-15T21:26:16.263Z,2.08
2022-09-15T21:28:45.982Z,1.98
2022-09-15T21:31:18.124Z,2.03
2022-09-15T21:33:46.532Z,1.88
2022-09-15T21:36:20.376Z,2.28
2022-09-15T21:38:47.425Z,2.42
2022-09-15T21:41:16.911Z,2.00
2022-09-15T21:43:46.509Z,2.88
2022-09-15T21:46:18.354Z,2.40
2022-09-15T21:48:49.269Z,2.70
2022-09-15T21:51:24.307Z,2.45
2022-09-15T21:53:53.767Z,2.60
2022-09-15T21:56:24.259Z,2.22
2022-09-15T21:58:50.933Z,2.40
2022-09-15T22:01:19.789Z,2.70
2022-09-15T22:03:52.023Z,2.30
2022-09-15T22:06:20.959Z,2.42
2022-09-15T22:08:48.293Z,2.00
2022-09-15T22:11:15.076Z,2.03
2022-09-15T22:13:44.606Z,2.05
2022-09-15T22:16:14.497Z,2.28
2022-09-15T22:18:41.725Z,2.15
2022-09-15T22:21:15.999Z,1.75
2022-09-15T22:23:44.231Z,2.13
2022-09-15T22:26:13.462Z,1.85
2022-09-15T22:28:40.131Z,2.38
2022-09-15T22:31:08.905Z,2.00
2022-09-15T22:33:36.119Z,1.90
2022-09-15T22:36:03.289Z,2.28
2022-09-15T22:38:30.632Z,2.17
2022-09-15T22:41:04.518Z,2.03
2022-09-15T22:43:31.169Z,2.00
2022-09-15T22:45:57.821Z,2.25
2022-09-15T22:48:24.502Z,1.95
2022-09-15T22:50:51.095Z,2.30
2022-09-15T22:53:17.810Z,2.40
2022-09-15T22:55:44.641Z,2.50
2022-09-15T22:58:11.474Z,2.45
2022-09-15T23:00:38.793Z,2.40
2022-09-15T23:03:06.629Z,2.40
2022-09-15T23:05:34.516Z,2.28
2022-09-15T23:08:01.391Z,2.78
2022-09-15T23:10:28.448Z,2.92
2022-09-15T23:12:55.117Z,2.42
2022-09-15T23:15:21.712Z,2.88
2022-09-15T23:17:48.356Z,2.72
2022-09-15T23:20:15.227Z,2.55
2022-09-15T23:22:41.904Z,2.03
2022-09-15T23:25:08.937Z,2.65
2022-09-15T23:27:37.819Z,2.38
2022-09-15T23:30:05.172Z,2.50
2022-09-15T23:32:31.853Z,2.70
2022-09-15T23:34:58.442Z,2.67
2022-09-15T23:37:25.057Z,2.50
2022-09-15T23:39:52.347Z,2.70
2022-09-15T23:42:19.256Z,2.58
2022-09-15T23:44:46.214Z,1.90
2022-09-15T23:47:12.817Z,2.47
2022-09-15T23:49:39.533Z,2.75
2022-09-15T23:52:06.171Z,2.33
2022-09-15T23:54:32.827Z,2.50
2022-09-15T23:56:59.510Z,2.03
2022-09-15T23:59:26.220Z,2.15
